createdAt,value
2022-08-17T00:02:27.100Z,99723.40
2022-08-17T00:05:00.505Z,99729.40
2022-08-17T00:07:33.702Z,99729.80
2022-08-17T00:10:07.919Z,99726.40
2022-08-17T00:12:45.455Z,99728.20
2022-08-17T00:15:19.877Z,99730.60
2022-08-17T00:17:54.332Z,99729.80
2022-08-17T00:20:30.560Z,99722.20
2022-08-17T00:23:14.014Z,99721.80
2022-08-17T00:25:48.860Z,99714.40
2022-08-17T00:28:22.633Z,99715.60
2022-08-17T00:30:56.401Z,99712.20
2022-08-17T00:33:33.209Z,99713.00
2022-08-17T00:36:07.695Z,99712.80
2022-08-17T00:38:41.371Z,99713.60
2022-08-17T00:41:18.610Z,99716.40
2022-08-17T00:43:56.226Z,99720.00
2022-08-17T00:46:34.708Z,99722.60
2022-08-17T00:49:08.962Z,99717.60
2022-08-17T00:51:51.300Z,99720.80
2022-08-17T00:54:29.567Z,99719.40
2022-08-17T00:57:09.766Z,99723.20
2022-08-17T01:00:01.892Z,99720.00
2022-08-17T01:02:43.242Z,99721.60
2022-08-17T01:05:21.764Z,99722.40
2022-08-17T01:07:56.588Z,99722.40
2022-08-17T01:10:59.918Z,99723.00
2022-08-17T01:13:36.769Z,99730.60
2022-08-17T01:16:21.507Z,99727.60
2022-08-17T01:18:59.673Z,99732.20
2022-08-17T01:21:42.840Z,99722.80
2022-08-17T01:24:16.364Z,99724.00
2022-08-17T01:26:50.036Z,99718.20
2022-08-17T01:29:25.439Z,99716.80
2022-08-17T01:32:04.716Z,99720.60
2022-08-17T01:34:42.798Z,99716.60
2022-08-17T01:37:20.579Z,99717.20
2022-08-17T01:39:58.705Z,99715.80
2022-08-17T01:42:40.825Z,99715.80
2022-08-17T01:45:20.769Z,99716.00
2022-08-17T01:47:55.576Z,99711.80
2022-08-17T01:50:37.957Z,99714.00
2022-08-17T01:53:18.082Z,99710.20
2022-08-17T01:55:59.219Z,99716.80
2022-08-17T01:58:33.433Z,99716.40
2022-08-17T02:01:09.455Z,99719.80
2022-08-17T02:03:54.532Z,99718.80
2022-08-17T02:06:42.762Z,99719.60
2022-08-17T02:09:18.916Z,99719.20
2022-08-17T02:11:59.113Z,99712.60
2022-08-17T02:14:32.996Z,99712.20
2022-08-17T02:17:06.270Z,99710.80
2022-08-17T02:19:39.554Z,99708.20
2022-08-17T02:22:13.125Z,99712.40
2022-08-17T02:25:18.036Z,99707.40
2022-08-17T02:27:55.786Z,99706.80
2022-08-17T02:31:00.310Z,99702.80
2022-08-17T02:33:22.852Z,99699.40
2022-08-17T02:35:57.885Z,99702.00
2022-08-17T02:38:32.071Z,99703.00
2022-08-17T02:41:05.520Z,99700.40
2022-08-17T02:43:38.712Z,99698.40
2022-08-17T02:46:13.002Z,99699.40
2022-08-17T02:48:46.205Z,99695.80
2022-08-17T02:51:19.735Z,99697.20
2022-08-17T02:54:05.327Z,99704.20
2022-08-17T02:56:47.797Z,99697.00
2022-08-17T02:59:24.947Z,99704.80
2022-08-17T03:01:58.292Z,99708.20
2022-08-17T03:04:31.801Z,99711.40
2022-08-17T03:07:11.838Z,99715.80
2022-08-17T03:09:45.252Z,99718.60
2022-08-17T03:12:18.631Z,99722.40
2022-08-17T03:14:51.885Z,99724.20
2022-08-17T03:17:25.099Z,99719.80
2022-08-17T03:19:59.293Z,99717.20
2022-08-17T03:22:38.563Z,99719.20
2022-08-17T03:25:16.734Z,99718.40
2022-08-17T03:27:55.402Z,99722.40
2022-08-17T03:30:30.580Z,99727.80
2022-08-17T03:33:10.079Z,99723.20
2022-08-17T03:35:44.127Z,99725.00
2022-08-17T03:38:18.240Z,99728.00
2022-08-17T03:41:00.593Z,99726.40
2022-08-17T03:43:35.734Z,99726.40
2022-08-17T03:46:34.535Z,99727.00
2022-08-17T03:49:28.631Z,99733.00
2022-08-17T03:52:19.800Z,99734.00
2022-08-17T03:55:10.467Z,99738.00
2022-08-17T03:57:43.619Z,99735.40
2022-08-17T04:00:18.188Z,99736.60
2022-08-17T04:02:51.956Z,99743.60
2022-08-17T04:05:25.748Z,99743.20
2022-08-17T04:07:59.788Z,99740.60
2022-08-17T04:10:34.023Z,99740.40
2022-08-17T04:13:24.859Z,99745.40
2022-08-17T04:15:59.931Z,99748.40
2022-08-17T04:18:33.669Z,99749.40
2022-08-17T04:21:09.419Z,99749.40
2022-08-17T04:23:42.807Z,99747.00
2022-08-17T04:26:54.101Z,99754.80
2022-08-17T04:29:11.807Z,99760.40
2022-08-17T04:31:45.976Z,99763.60
2022-08-17T04:34:19.688Z,99765.00
2022-08-17T04:36:55.730Z,99766.40
2022-08-17T04:39:29.523Z,99767.80
2022-08-17T04:42:16.972Z,99764.20
2022-08-17T04:44:50.116Z,99765.40
2022-08-17T04:47:23.360Z,99766.20
2022-08-17T04:49:56.576Z,99768.20
2022-08-17T04:52:43.491Z,99767.00
2022-08-17T04:55:17.091Z,99766.80
2022-08-17T04:57:50.186Z,99765.60
2022-08-17T05:00:25.876Z,99769.00
2022-08-17T05:02:59.805Z,99766.40
2022-08-17T05:05:36.323Z,99761.80
2022-08-17T05:08:10.998Z,99763.00
2022-08-17T05:10:45.802Z,99761.60
2022-08-17T05:13:23.096Z,99765.60
2022-08-17T05:15:59.692Z,99770.00
2022-08-17T05:18:37.311Z,99770.80
2022-08-17T05:21:11.187Z,99771.20
2022-08-17T05:23:45.483Z,99776.00
2022-08-17T05:26:29.541Z,99776.20
2022-08-17T05:29:03.566Z,99779.80
2022-08-17T05:31:37.082Z,99781.60
2022-08-17T05:34:11.540Z,99781.80
2022-08-17T05:36:45.285Z,99778.40
2022-08-17T05:39:19.371Z,99775.80
2022-08-17T05:41:52.617Z,99777.40
2022-08-17T05:44:25.894Z,99776.40
2022-08-17T05:47:02.693Z,99776.40
2022-08-17T05:49:36.780Z,99777.20
2022-08-17T05:52:31.620Z,99776.20
2022-08-17T05:55:24.936Z,99774.80
2022-08-17T05:58:18.548Z,99768.20
2022-08-17T06:01:04.779Z,99768.60
2022-08-17T06:03:54.542Z,99772.00
2022-08-17T06:06:46.447Z,99779.20
2022-08-17T06:09:34.076Z,99783.00
2022-08-17T06:12:30.103Z,99789.60
2022-08-17T06:15:25.958Z,99789.20
2022-08-17T06:18:02.812Z,99795.00
2022-08-17T06:20:46.379Z,99790.80
2022-08-17T06:23:28.221Z,99795.00
2022-08-17T06:26:09.704Z,99791.60
2022-08-17T06:28:52.691Z,99795.80
2022-08-17T06:31:32.952Z,99793.60
2022-08-17T06:34:10.726Z,99793.60
2022-08-17T06:37:01.028Z,99793.80
2022-08-17T06:39:50.796Z,99797.40
2022-08-17T06:43:02.617Z,99798.00
2022-08-17T06:45:42.853Z,99803.60
2022-08-17T06:48:25.879Z,99802.20
2022-08-17T06:51:04.431Z,99803.80
2022-08-17T06:53:46.652Z,99803.40
2022-08-17T06:56:53.995Z,99808.60
2022-08-17T06:59:53.261Z,99809.60
2022-08-17T07:02:52.363Z,99812.40
2022-08-17T07:05:33.402Z,99813.80
2022-08-17T07:08:14.946Z,99816.40
2022-08-17T07:10:55.120Z,99810.00
2022-08-17T07:13:49.259Z,99812.00
2022-08-17T07:16:34.419Z,99810.60
2022-08-17T07:19:08.265Z,99812.40
2022-08-17T07:21:56.194Z,99820.00
2022-08-17T07:24:45.235Z,99822.40
2022-08-17T07:27:24.986Z,99819.40
2022-08-17T07:30:06.797Z,99820.00
2022-08-17T07:32:49.139Z,99829.40
2022-08-17T07:35:40.835Z,99833.20
2022-08-17T07:38:28.772Z,99832.20
2022-08-17T07:41:10.082Z,99828.60
2022-08-17T07:43:53.029Z,99828.60
2022-08-17T07:46:48.201Z,99829.60
2022-08-17T07:49:33.961Z,99835.20
2022-08-17T07:52:24.100Z,99837.00
2022-08-17T07:55:40.578Z,99838.80
2022-08-17T07:58:22.423Z,99835.20
2022-08-17T08:01:12.896Z,99836.20
2022-08-17T08:03:52.450Z,99836.80
2022-08-17T08:06:28.528Z,99836.40
2022-08-17T08:09:02.521Z,99837.60
2022-08-17T08:11:44.144Z,99841.60
2022-08-17T08:14:31.159Z,99840.00
2022-08-17T08:17:09.240Z,99841.20
2022-08-17T08:19:43.201Z,99845.20
2022-08-17T08:22:29.657Z,99845.60
2022-08-17T08:25:16.632Z,99842.20
2022-08-17T08:28:04.898Z,99837.80
2022-08-17T08:30:47.628Z,99839.00
2022-08-17T08:33:43.697Z,99841.20
2022-08-17T08:37:14.711Z,99840.80
2022-08-17T08:39:45.153Z,99838.00
2022-08-17T08:42:31.627Z,99838.40
2022-08-17T08:45:17.783Z,99846.40
2022-08-17T08:48:46.124Z,99841.40
2022-08-17T08:51:22.959Z,99842.20
2022-08-17T08:54:07.630Z,99842.00
2022-08-17T08:57:11.958Z,99838.20
2022-08-17T08:59:58.029Z,99839.60
2022-08-17T09:02:57.621Z,99842.00
2022-08-17T09:05:48.355Z,99838.40
2022-08-17T09:08:34.422Z,99838.20
2022-08-17T09:11:17.707Z,99837.80
2022-08-17T09:14:03.721Z,99837.00
2022-08-17T09:16:43.834Z,99843.60
2022-08-17T09:19:30.142Z,99845.80
2022-08-17T09:22:14.329Z,99841.40
2022-08-17T09:24:57.350Z,99840.00
2022-08-17T09:27:37.783Z,99841.00
2022-08-17T09:30:15.302Z,99837.20
2022-08-17T09:32:55.459Z,99840.00
2022-08-17T09:35:37.715Z,99838.40
2022-08-17T09:38:23.282Z,99834.80
2022-08-17T09:41:08.585Z,99837.80
2022-08-17T09:43:50.553Z,99835.40
2022-08-17T09:46:31.854Z,99828.60
2022-08-17T09:49:21.867Z,99831.60
2022-08-17T09:52:06.778Z,99834.00
2022-08-17T09:54:44.469Z,99831.60
2022-08-17T09:57:34.166Z,99833.40
2022-08-17T10:00:26.504Z,99833.20
2022-08-17T10:03:24.271Z,99833.60
2022-08-17T10:06:13.951Z,99833.80
2022-08-17T10:08:53.750Z,99835.20
2022-08-17T10:12:00.922Z,99832.40
2022-08-17T10:14:44.103Z,99829.00
2022-08-17T10:17:27.039Z,99831.80
2022-08-17T10:20:11.984Z,99833.20
2022-08-17T10:23:09.019Z,99829.60
2022-08-17T10:26:08.210Z,99830.60
2022-08-17T10:28:50.817Z,99831.20
2022-08-17T10:31:35.642Z,99832.80
2022-08-17T10:35:18.600Z,99832.60
2022-08-17T10:38:25.616Z,99837.40
2022-08-17T10:41:06.581Z,99834.20
2022-08-17T10:44:39.852Z,99833.00
2022-08-17T10:47:11.530Z,99831.00
2022-08-17T10:49:54.089Z,99835.20
2022-08-17T10:53:06.555Z,99845.20
2022-08-17T10:56:51.643Z,99842.00
2022-08-17T10:59:58.294Z,99832.60
2022-08-17T11:03:11.390Z,99842.00
2022-08-17T11:06:19.452Z,99841.80
2022-08-17T11:09:40.430Z,99840.40
2022-08-17T11:12:55.729Z,99840.00
2022-08-17T11:15:59.074Z,99842.40
2022-08-17T11:19:10.002Z,99837.60
2022-08-17T11:22:12.887Z,99834.40
2022-08-17T11:24:59.185Z,99832.40
2022-08-17T11:27:36.697Z,99837.40
2022-08-17T11:30:15.966Z,99835.00
2022-08-17T11:32:56.674Z,99835.80
2022-08-17T11:35:55.981Z,99831.60
2022-08-17T11:38:57.123Z,99826.80
2022-08-17T11:41:41.879Z,99828.80
2022-08-17T11:44:32.486Z,99823.80
2022-08-17T11:47:37.259Z,99823.40
2022-08-17T11:50:56.257Z,99824.20
2022-08-17T11:54:32.939Z,99821.80
2022-08-17T11:57:02.347Z,99815.80
2022-08-17T12:00:06.326Z,99812.60
2022-08-17T12:02:48.896Z,99808.20
2022-08-17T12:05:37.302Z,99802.80
2022-08-17T12:08:25.200Z,99784.80
2022-08-17T12:11:57.831Z,99776.00
2022-08-17T12:15:09.044Z,99768.00
2022-08-17T12:17:42.677Z,99771.60
2022-08-17T12:20:25.604Z,99771.40
2022-08-17T12:23:10.859Z,99767.60
2022-08-17T12:25:52.246Z,99770.60
2022-08-17T12:28:31.496Z,99777.20
2022-08-17T12:31:13.095Z,99773.00
2022-08-17T12:33:51.852Z,99775.40
2022-08-17T12:36:29.532Z,99778.80
2022-08-17T12:39:14.155Z,99774.80
2022-08-17T12:41:57.410Z,99771.00
2022-08-17T12:44:46.185Z,99779.80
2022-08-17T12:47:25.095Z,99777.60
2022-08-17T12:50:29.106Z,99778.40
2022-08-17T12:53:03.063Z,99777.40
2022-08-17T12:55:40.563Z,99780.20
2022-08-17T12:58:19.093Z,99775.80
2022-08-17T13:01:00.189Z,99779.20
2022-08-17T13:03:42.880Z,99778.80
2022-08-17T13:06:32.381Z,99776.00
2022-08-17T13:09:19.343Z,99775.60
2022-08-17T13:11:56.408Z,99771.60
2022-08-17T13:14:31.178Z,99772.60
2022-08-17T13:17:22.176Z,99778.60
2022-08-17T13:19:58.366Z,99784.60
2022-08-17T13:22:39.319Z,99781.00
2022-08-17T13:25:20.192Z,99780.00
2022-08-17T13:27:56.564Z,99779.80
2022-08-17T13:30:34.031Z,99783.80
2022-08-17T13:33:43.259Z,99777.40
2022-08-17T13:36:33.608Z,99777.60
2022-08-17T13:39:18.859Z,99777.20
2022-08-17T13:41:56.214Z,99784.40
2022-08-17T13:44:41.593Z,99787.60
2022-08-17T13:47:22.299Z,99783.20
2022-08-17T13:49:55.709Z,99785.00
2022-08-17T13:52:43.764Z,99780.40
2022-08-17T13:55:24.830Z,99784.20
2022-08-17T13:58:03.517Z,99778.40
2022-08-17T14:00:41.515Z,99780.80
2022-08-17T14:03:15.443Z,99779.00
2022-08-17T14:05:50.390Z,99778.40
2022-08-17T14:08:31.231Z,99779.20
2022-08-17T14:11:06.392Z,99780.20
2022-08-17T14:13:46.423Z,99781.40
2022-08-17T14:16:20.928Z,99783.40
2022-08-17T14:19:01.764Z,99777.20
2022-08-17T14:21:35.528Z,99776.20
2022-08-17T14:24:16.978Z,99773.80
2022-08-17T14:26:52.358Z,99771.40
2022-08-17T14:29:28.174Z,99775.20
2022-08-17T14:32:17.168Z,99775.00
2022-08-17T14:34:51.710Z,99772.60
2022-08-17T14:37:28.061Z,99772.00
2022-08-17T14:40:05.166Z,99773.60
2022-08-17T14:42:41.635Z,99773.60
2022-08-17T14:45:29.938Z,99774.80
2022-08-17T14:48:08.562Z,99775.20
2022-08-17T14:51:10.712Z,99778.40
2022-08-17T14:57:08.651Z,99776.60
2022-08-17T15:00:22.514Z,99778.60
2022-08-17T15:05:48.856Z,99783.00
2022-08-17T15:08:22.268Z,99781.80
2022-08-17T15:10:59.563Z,99784.80
2022-08-17T15:13:33.868Z,99783.80
2022-08-17T15:16:08.654Z,99784.60
2022-08-17T15:18:43.332Z,99787.20
2022-08-17T15:21:18.208Z,99787.20
2022-08-17T15:26:48.181Z,99786.60
2022-08-17T15:29:23.555Z,99784.80
2022-08-17T15:32:00.584Z,99783.80
2022-08-17T15:34:34.151Z,99785.00
2022-08-17T15:37:07.598Z,99783.80
2022-08-17T15:39:41.036Z,99781.00
2022-08-17T15:42:14.827Z,99781.60
2022-08-17T15:44:48.640Z,99786.20
2022-08-17T15:47:28.467Z,99786.00
2022-08-17T15:50:01.915Z,99787.00
2022-08-17T15:52:40.139Z,99786.40
2022-08-17T15:55:20.857Z,99789.20
2022-08-17T15:57:57.333Z,99793.00
2022-08-17T16:00:30.987Z,99794.00
2022-08-17T16:03:22.921Z,99800.20
2022-08-17T16:06:03.447Z,99793.80
2022-08-17T16:08:37.853Z,99796.60
2022-08-17T16:11:12.049Z,99798.80
2022-08-17T16:13:47.408Z,99803.40
2022-08-17T16:16:29.067Z,99797.20
2022-08-17T16:19:02.451Z,99798.60
2022-08-17T16:21:43.198Z,99802.40
2022-08-17T16:24:15.061Z,99804.40
2022-08-17T16:26:48.466Z,99805.00
2022-08-17T16:29:21.764Z,99805.40
2022-08-17T16:31:55.633Z,99810.40
2022-08-17T16:34:29.189Z,99817.40
2022-08-17T16:37:02.463Z,99816.60
2022-08-17T16:39:36.656Z,99813.00
2022-08-17T16:42:24.596Z,99812.20
2022-08-17T16:45:04.799Z,99817.80
2022-08-17T16:47:39.218Z,99811.40
2022-08-17T16:50:18.013Z,99818.40
2022-08-17T16:52:52.988Z,99815.40
2022-08-17T16:55:26.628Z,99825.60
2022-08-17T16:58:01.905Z,99818.20
2022-08-17T17:00:45.104Z,99820.00
2022-08-17T17:03:22.953Z,99820.60
2022-08-17T17:06:18.621Z,99824.00
2022-08-17T17:09:00.022Z,99827.20
2022-08-17T17:11:42.486Z,99824.60
2022-08-17T17:14:28.571Z,99825.20
2022-08-17T17:17:20.964Z,99820.20
2022-08-17T17:20:07.819Z,99815.60
2022-08-17T17:22:49.358Z,99812.80
2022-08-17T17:25:37.137Z,99809.20
2022-08-17T17:28:28.571Z,99806.60
2022-08-17T17:31:11.730Z,99808.20
2022-08-17T17:33:51.190Z,99817.00
2022-08-17T17:36:38.128Z,99810.60
2022-08-17T17:39:18.950Z,99820.40
2022-08-17T17:41:58.491Z,99820.00
2022-08-17T17:44:40.822Z,99818.20
2022-08-17T17:47:16.301Z,99810.40
2022-08-17T17:49:50.767Z,99805.60
2022-08-17T17:52:36.156Z,99804.40
2022-08-17T17:55:24.338Z,99799.60
2022-08-17T17:58:08.363Z,99801.00
2022-08-17T18:00:54.752Z,99805.40
2022-08-17T18:03:46.603Z,99816.80
2022-08-17T18:06:39.952Z,99825.00
2022-08-17T18:09:51.570Z,99822.20
2022-08-17T18:12:42.126Z,99822.00
2022-08-17T18:15:38.211Z,99827.40
2022-08-17T18:18:44.253Z,99820.80
2022-08-17T18:21:21.254Z,99819.80
2022-08-17T18:23:59.414Z,99811.20
2022-08-17T18:26:48.356Z,99808.20
2022-08-17T18:29:42.146Z,99812.00
2022-08-17T18:32:26.198Z,99815.00
2022-08-17T18:35:05.087Z,99825.00
2022-08-17T18:37:50.576Z,99826.40
2022-08-17T18:40:38.078Z,99829.20
2022-08-17T18:43:28.356Z,99822.60
2022-08-17T18:46:33.155Z,99825.80
2022-08-17T18:49:26.118Z,99823.00
2022-08-17T18:52:17.677Z,99823.00
2022-08-17T18:55:09.777Z,99829.40
2022-08-17T18:57:48.175Z,99830.80
2022-08-17T19:00:36.625Z,99826.40
2022-08-17T19:03:26.614Z,99826.80
2022-08-17T19:06:18.916Z,99827.20
2022-08-17T19:08:52.833Z,99828.00
2022-08-17T19:11:32.848Z,99826.80
2022-08-17T19:14:10.373Z,99829.80
2022-08-17T19:16:51.313Z,99831.40
2022-08-17T19:19:35.426Z,99832.20
2022-08-17T19:22:30.913Z,99831.80
2022-08-17T19:29:03.264Z,99842.80
2022-08-17T19:31:38.230Z,99844.40
2022-08-17T19:34:34.133Z,99842.60
2022-08-17T19:37:24.668Z,99843.80
2022-08-17T19:40:41.894Z,99842.40
2022-08-17T19:43:24.692Z,99844.00
2022-08-17T19:46:08.861Z,99849.60
2022-08-17T19:48:53.441Z,99850.20
2022-08-17T19:51:37.131Z,99853.20
2022-08-17T19:54:20.466Z,99854.80
2022-08-17T19:57:05.196Z,99854.60
2022-08-17T19:59:51.882Z,99851.20
2022-08-17T20:02:36.415Z,99858.00
2022-08-17T20:05:17.765Z,99863.00
2022-08-17T20:07:59.029Z,99862.20
2022-08-17T20:10:48.041Z,99857.60
2022-08-17T20:13:36.204Z,99860.00
2022-08-17T20:16:11.093Z,99859.60
2022-08-17T20:18:56.392Z,99851.60
2022-08-17T20:21:38.215Z,99852.60
2022-08-17T20:24:25.034Z,99850.60
2022-08-17T20:27:34.293Z,99847.40
2022-08-17T20:30:13.038Z,99849.00
2022-08-17T20:32:57.017Z,99849.20
2022-08-17T20:35:33.903Z,99850.00
2022-08-17T20:38:12.858Z,99842.00
2022-08-17T20:41:16.596Z,99838.00
2022-08-17T20:44:05.299Z,99836.20
2022-08-17T20:46:57.946Z,99834.80
2022-08-17T20:49:50.565Z,99833.60
2022-08-17T20:53:00.445Z,99830.00
2022-08-17T20:55:57.385Z,99830.00
2022-08-17T20:58:48.653Z,99835.40
2022-08-17T21:01:40.593Z,99833.40
2022-08-17T21:05:00.251Z,99825.60
2022-08-17T21:07:53.298Z,99821.20
2022-08-17T21:10:41.512Z,99827.00
2022-08-17T21:13:55.119Z,99826.80
2022-08-17T21:17:01.318Z,99819.80
2022-08-17T21:20:10.318Z,99818.00
2022-08-17T21:23:03.479Z,99813.20
2022-08-17T21:26:04.685Z,99814.60
2022-08-17T21:29:00.416Z,99823.60
2022-08-17T21:31:41.085Z,99817.60
2022-08-17T21:34:38.477Z,99809.20
2022-08-17T21:37:39.817Z,99814.00
2022-08-17T21:40:30.216Z,99820.40
2022-08-17T21:43:23.498Z,99816.80
2022-08-17T21:46:06.305Z,99821.40
2022-08-17T21:48:48.373Z,99823.00
2022-08-17T21:51:28.845Z,99826.60
2022-08-17T21:54:18.725Z,99832.20
2022-08-17T21:56:56.261Z,99834.40
2022-08-17T21:59:36.847Z,99829.80
2022-08-17T22:02:24.823Z,99832.20
2022-08-17T22:05:05.602Z,99832.60
2022-08-17T22:07:43.431Z,99832.60
2022-08-17T22:13:29.795Z,99833.40
2022-08-17T22:16:28.829Z,99829.20
2022-08-17T22:19:05.708Z,99831.20
2022-08-17T22:21:38.949Z,99833.20
2022-08-17T22:24:22.746Z,99834.40
2022-08-17T22:27:08.174Z,99834.40
2022-08-17T22:29:57.098Z,99843.20
2022-08-17T22:32:45.593Z,99840.60
2022-08-17T22:35:47.983Z,99842.40
2022-08-17T22:38:37.558Z,99844.00
2022-08-17T22:41:34.667Z,99850.80
2022-08-17T22:44:31.841Z,99855.00
2022-08-17T22:47:25.374Z,99851.40
2022-08-17T22:50:02.823Z,99853.20
2022-08-17T22:53:01.599Z,99850.20
2022-08-17T22:55:55.475Z,99853.40
2022-08-17T22:58:59.252Z,99852.20
2022-08-17T23:01:35.956Z,99853.80
2022-08-17T23:04:13.864Z,99861.40
2022-08-17T23:06:47.210Z,99857.60
2022-08-17T23:09:20.636Z,99870.40
2022-08-17T23:11:58.990Z,99870.60
2022-08-17T23:14:45.580Z,99866.20
2022-08-17T23:17:18.849Z,99872.60
2022-08-17T23:19:52.035Z,99868.00
2022-08-17T23:22:25.954Z,99871.00
2022-08-17T23:24:59.893Z,99873.20
2022-08-17T23:27:33.882Z,99875.40
2022-08-17T23:30:10.850Z,99874.20
2022-08-17T23:32:53.674Z,99875.20
2022-08-17T23:35:39.000Z,99877.20
2022-08-17T23:38:15.723Z,99875.80
2022-08-17T23:40:49.148Z,99875.40
2022-08-17T23:43:25.274Z,99873.00
2022-08-17T23:46:03.703Z,99872.00
2022-08-17T23:48:37.523Z,99862.60
2022-08-17T23:51:15.666Z,99861.60
2022-08-17T23:53:55.571Z,99865.80
2022-08-17T23:56:28.902Z,99859.80
2022-08-17T23:59:05.067Z,99854.20
